Centerville, Idaho
Current Conditions -  °F | °C
As of 9:53 PM on Tuesday 25 Nov 2014 (Local Time) from KBOI Reporting Station
Overcast Overcast  
Wind Chill: 51°   Ceiling: 6500
Heat Index: 51°   Visibility: 10mi
Dew Point: 41°   Wind: 6mph
Humidity: 68%   Direction: 310°NW
Pressure: 30.28"   Gusts: NA
Location:  43.8008°N, 115.834°W
Report Text: KBOI 260453Z 31005KT 10SM OVC065 11/05 A3028 RMK AO2 SLP254 T01060050
Loading
Personal Weather Stations






























Interactive Weather Map New forecast layout! Learn more

10-Day Weather Forecast

Advertisements
Track Severe Weather on mobile